createdAt,value
2018-12-25T00:01:50.188Z,98.77
2018-12-25T00:07:10.253Z,99.49
2018-12-25T00:12:31.606Z,98.06
2018-12-25T00:17:51.716Z,99.12
2018-12-25T00:23:11.065Z,99.15
2018-12-25T00:28:30.391Z,98.77
2018-12-25T00:33:50.251Z,98.51
2018-12-25T00:39:10.162Z,98.51
2018-12-25T00:44:30.407Z,97.93
2018-12-25T00:49:49.947Z,98.67
2018-12-25T00:55:09.001Z,98.11
2018-12-25T01:12:09.876Z,95.45
2018-12-25T01:17:29.538Z,97.91
2018-12-25T02:52:23.320Z,97.43
2018-12-25T02:57:42.564Z,96.96
2018-12-25T03:03:01.707Z,97.56
2018-12-25T03:08:21.878Z,96.52
2018-12-25T03:13:41.598Z,97.93
2018-12-25T03:19:01.355Z,96.89
2018-12-25T03:24:21.620Z,97.27
2018-12-25T03:29:41.647Z,97.03
2018-12-25T03:35:00.821Z,96.17
2018-12-25T03:40:19.941Z,95.97
2018-12-25T03:45:39.901Z,96.45
2018-12-25T03:50:59.224Z,96.27
2018-12-25T03:56:18.941Z,96.90
2018-12-25T04:01:39.444Z,96.57
2018-12-25T04:06:58.180Z,95.57
2018-12-25T04:12:18.512Z,96.63
2018-12-25T04:17:38.037Z,95.97
2018-12-25T04:22:58.822Z,95.79
2018-12-25T04:28:19.058Z,96.15
2018-12-25T04:33:39.476Z,95.33
2018-12-25T04:38:59.749Z,95.94
2018-12-25T04:44:19.421Z,96.08
2018-12-25T04:49:38.859Z,94.87
2018-12-25T04:54:58.181Z,94.87
2018-12-25T05:00:18.215Z,96.14
2018-12-25T05:05:38.177Z,94.80
2018-12-25T05:10:57.592Z,91.79
2018-12-25T05:16:17.449Z,94.01
2018-12-25T05:21:37.521Z,93.07
2018-12-25T05:26:56.884Z,93.39
2018-12-25T05:32:16.375Z,92.18
2018-12-25T05:37:38.069Z,90.76
2018-12-25T05:42:58.181Z,90.19
2018-12-25T05:48:21.380Z,91.80
2018-12-25T05:53:43.960Z,87.37
2018-12-25T05:59:05.141Z,87.37
2018-12-25T06:04:25.162Z,89.48
2018-12-25T06:09:47.337Z,90.09
2018-12-25T06:15:06.332Z,90.16
2018-12-25T06:20:26.679Z,90.47
2018-12-25T06:25:46.151Z,90.47
2018-12-25T06:31:05.440Z,92.03
2018-12-25T06:36:25.303Z,87.92
2018-12-25T06:41:44.488Z,89.45
2018-12-25T06:47:04.429Z,89.38
2018-12-25T06:52:24.381Z,91.19
2018-12-25T06:57:44.150Z,89.49
2018-12-25T07:03:03.935Z,88.67
2018-12-25T07:08:23.670Z,88.17
2018-12-25T07:13:42.936Z,86.21
2018-12-25T07:19:03.081Z,88.40
2018-12-25T07:24:22.800Z,87.65
2018-12-25T07:29:42.607Z,86.71
2018-12-25T07:35:02.003Z,88.79
2018-12-25T07:40:21.483Z,88.64
2018-12-25T07:45:40.828Z,87.16
2018-12-25T07:51:01.069Z,85.28
2018-12-25T07:56:21.088Z,88.02
2018-12-25T08:01:41.446Z,84.74
2018-12-25T08:07:00.850Z,86.18
2018-12-25T08:12:21.268Z,87.91
2018-12-25T08:17:41.137Z,87.37
2018-12-25T08:23:02.724Z,88.16
2018-12-25T08:28:19.974Z,86.45
2018-12-25T08:33:39.341Z,85.73
2018-12-25T08:38:59.682Z,86.70
2018-12-25T08:44:18.766Z,86.99
2018-12-25T08:49:38.827Z,84.39
2018-12-25T08:54:58.207Z,85.81
2018-12-25T09:00:17.969Z,85.36
2018-12-25T09:05:37.809Z,83.93
2018-12-25T09:10:58.602Z,82.94
2018-12-25T09:16:18.283Z,81.57
2018-12-25T09:21:46.172Z,84.19
2018-12-25T09:26:58.161Z,82.44
2018-12-25T09:32:17.848Z,82.53
2018-12-25T09:37:37.491Z,85.62
2018-12-25T09:42:58.469Z,83.93
2018-12-25T09:48:19.087Z,81.57
2018-12-25T09:53:38.680Z,84.20
2018-12-25T09:58:58.729Z,81.75
2018-12-25T10:04:18.311Z,83.34
2018-12-25T10:09:37.448Z,83.16
2018-12-25T10:14:57.249Z,83.55
2018-12-25T10:20:16.851Z,82.88
2018-12-25T10:25:36.399Z,82.57
2018-12-25T10:30:56.579Z,82.92
2018-12-25T10:36:15.469Z,83.24
2018-12-25T10:41:34.893Z,83.42
2018-12-25T10:46:54.887Z,82.67
2018-12-25T10:52:14.338Z,83.30
2018-12-25T10:57:34.093Z,85.49
2018-12-25T11:02:54.667Z,81.02
2018-12-25T11:08:13.920Z,86.08
2018-12-25T11:13:33.283Z,86.69
2018-12-25T11:18:53.081Z,86.55
2018-12-25T11:24:12.336Z,86.15
2018-12-25T11:29:32.073Z,87.45
2018-12-25T11:34:51.622Z,87.26
2018-12-25T11:40:11.519Z,87.72
2018-12-25T11:45:32.019Z,87.17
2018-12-25T11:50:51.652Z,88.56
2018-12-25T11:56:12.487Z,87.50
2018-12-25T12:01:33.376Z,86.71
2018-12-25T12:06:52.465Z,86.24
2018-12-25T12:12:11.831Z,85.64
2018-12-25T12:17:33.007Z,84.42
2018-12-25T12:22:52.430Z,82.83
2018-12-25T12:28:12.591Z,83.82
2018-12-25T12:33:32.407Z,81.35
2018-12-25T12:38:52.187Z,83.35
2018-12-25T12:44:12.266Z,82.78
2018-12-25T12:49:32.195Z,79.08
2018-12-25T12:54:51.683Z,78.74
2018-12-25T13:00:11.232Z,81.68
2018-12-25T13:05:31.750Z,80.60
2018-12-25T13:10:52.268Z,81.09
2018-12-25T13:16:11.772Z,79.32
2018-12-25T13:21:31.646Z,81.65
2018-12-25T13:26:51.190Z,81.56
2018-12-25T13:32:13.774Z,78.84
2018-12-25T13:37:33.370Z,80.95
2018-12-25T13:42:52.715Z,81.19
2018-12-25T13:48:11.812Z,81.61
2018-12-25T13:53:32.124Z,81.98
2018-12-25T13:58:51.807Z,80.46
2018-12-25T14:04:12.246Z,81.16
2018-12-25T14:09:32.091Z,82.09
2018-12-25T14:14:51.477Z,79.63
2018-12-25T14:20:11.223Z,79.75
2018-12-25T14:25:30.961Z,80.12
2018-12-25T14:30:51.452Z,78.98
2018-12-25T14:36:10.876Z,79.13
2018-12-25T14:41:30.584Z,79.16
2018-12-25T14:46:50.328Z,77.49
2018-12-25T14:52:09.891Z,80.34
2018-12-25T14:57:29.613Z,79.25
2018-12-25T15:02:49.244Z,79.12
2018-12-25T15:08:08.328Z,78.16
2018-12-25T15:13:27.557Z,78.41
2018-12-25T15:18:46.619Z,77.49
2018-12-25T15:24:06.329Z,78.36
2018-12-25T15:29:25.739Z,77.26
2018-12-25T15:34:46.551Z,77.90
2018-12-25T15:40:07.592Z,78.48
2018-12-25T15:45:27.375Z,77.67
2018-12-25T15:50:47.770Z,76.87
2018-12-25T15:56:07.076Z,79.72
2018-12-25T16:01:27.231Z,75.97
2018-12-25T16:06:48.311Z,75.86
2018-12-25T16:12:07.603Z,78.87
2018-12-25T16:17:30.277Z,79.58
2018-12-25T16:22:49.463Z,78.67
2018-12-25T16:28:09.735Z,78.62
2018-12-25T16:33:29.482Z,76.68
2018-12-25T16:38:48.879Z,79.72
2018-12-25T16:44:08.893Z,78.22
2018-12-25T16:49:28.317Z,78.20
2018-12-25T16:54:48.170Z,77.94
2018-12-25T17:00:08.315Z,76.90
2018-12-25T17:05:28.076Z,76.52
2018-12-25T17:10:47.915Z,79.55
2018-12-25T17:16:07.309Z,76.05
2018-12-25T17:21:29.491Z,79.71
2018-12-25T17:26:49.179Z,78.52
2018-12-25T17:32:08.363Z,76.42
2018-12-25T17:37:29.530Z,75.64
2018-12-25T17:42:47.838Z,75.57
2018-12-25T17:48:08.047Z,73.91
2018-12-25T17:53:27.353Z,73.98
2018-12-25T17:58:48.674Z,73.78
2018-12-25T18:04:08.926Z,73.78
2018-12-25T18:09:29.540Z,74.05
2018-12-25T18:14:49.137Z,73.48
2018-12-25T18:20:09.088Z,73.88
2018-12-25T18:25:28.895Z,73.33
2018-12-25T18:30:49.008Z,73.80
2018-12-25T18:36:08.822Z,73.46
2018-12-25T18:41:28.836Z,74.66
2018-12-25T18:46:48.139Z,74.29
2018-12-25T18:52:07.517Z,73.82
2018-12-25T18:57:31.373Z,73.77
2018-12-25T19:02:52.189Z,74.06
2018-12-25T19:08:12.715Z,73.21
2018-12-25T19:13:33.183Z,73.14
2018-12-25T19:18:53.054Z,72.00
2018-12-25T19:24:12.725Z,73.20
2018-12-25T19:29:32.908Z,73.23
2018-12-25T19:34:54.287Z,73.75
2018-12-25T19:40:13.733Z,73.77
2018-12-25T19:45:33.745Z,73.13
2018-12-25T19:50:53.756Z,73.53
2018-12-25T19:56:15.398Z,74.20
2018-12-25T20:01:35.575Z,74.26
2018-12-25T20:07:21.582Z,73.77
2018-12-25T20:13:29.238Z,73.82
2018-12-25T20:19:49.774Z,73.98
2018-12-25T20:26:05.769Z,74.07
2018-12-25T20:31:48.489Z,74.30
2018-12-25T20:38:01.444Z,74.25
2018-12-25T20:43:48.854Z,74.75
2018-12-25T20:49:39.860Z,74.20
2018-12-25T20:55:37.123Z,74.64
2018-12-25T21:01:36.012Z,73.62
2018-12-25T21:07:32.648Z,74.06
2018-12-25T21:13:49.895Z,73.94
2018-12-25T21:19:46.341Z,74.81
2018-12-25T21:25:45.473Z,74.17
2018-12-25T21:31:08.313Z,74.71
2018-12-25T21:36:28.866Z,74.92
2018-12-25T21:41:48.349Z,74.81
2018-12-25T21:47:08.583Z,75.51
2018-12-25T21:52:32.874Z,75.22
2018-12-25T21:57:53.186Z,74.95
2018-12-25T22:03:12.956Z,75.38
2018-12-25T22:08:33.480Z,75.27
2018-12-25T22:13:52.508Z,75.57
2018-12-25T22:19:12.063Z,74.98
2018-12-25T22:24:31.701Z,74.78
2018-12-25T22:29:51.553Z,74.19
2018-12-25T22:35:12.080Z,75.13
2018-12-25T22:40:32.317Z,74.89
2018-12-25T22:45:52.145Z,74.75
2018-12-25T22:51:12.761Z,74.74
2018-12-25T22:56:32.736Z,74.55
2018-12-25T23:01:52.186Z,74.89
2018-12-25T23:07:12.237Z,75.32
2018-12-25T23:12:32.336Z,75.00
2018-12-25T23:17:51.664Z,74.10
2018-12-25T23:23:11.453Z,74.82
2018-12-25T23:28:30.568Z,74.80
2018-12-25T23:33:49.704Z,74.22
2018-12-25T23:39:10.024Z,74.75
2018-12-25T23:44:30.129Z,74.37
2018-12-25T23:49:49.403Z,74.74
2018-12-25T23:55:09.066Z,74.51
